Time;durP1;ratioP1;P1;durP2;ratioP2;P2;SDS_P1;SDS_P2;PMS_P1;PMS_P2;Temp;Humidity;BMP_temperature;BMP_pressure;BME280_temperature;BME280_humidity;BME280_pressure;Samples;Min_cycle;Max_cycle;Signal;HPM_P1;HPM_P2
2023/03/24 00:00:37;;;;;;;8.73;3.72;;;;;;;-143.48;100.00;118439.88;5073837;28;20048;-68
2023/03/24 00:03:03;;;;;;;12.70;3.75;;;;;;;-143.48;100.00;118439.88;5073919;28;20024;-69
2023/03/24 00:05:29;;;;;;;11.38;3.60;;;;;;;-143.48;100.00;118439.88;5073697;28;20024;-69
2023/03/24 00:07:55;;;;;;;7.93;3.20;;;;;;;-143.48;100.00;118439.88;5072602;28;20515;-69
2023/03/24 00:10:21;;;;;;;7.25;3.30;;;;;;;-143.48;100.00;118439.88;5073557;28;20120;-71
2023/03/24 00:12:47;;;;;;;10.63;3.65;;;;;;;-143.48;100.00;118439.88;5073726;28;20036;-69
2023/03/24 00:15:17;;;;;;;11.52;3.65;;;;;;;-143.48;100.00;118439.88;5073421;28;20025;-67
2023/03/24 00:17:49;;;;;;;10.60;3.40;;;;;;;-143.48;100.00;118439.88;5073713;28;20025;-70
2023/03/24 00:20:16;;;;;;;8.95;3.38;;;;;;;-143.48;100.00;118439.88;5073753;28;20033;-68
2023/03/24 00:22:48;;;;;;;7.05;3.38;;;;;;;-143.48;100.00;118439.88;5073520;28;20020;-68
2023/03/24 00:25:18;;;;;;;7.43;3.40;;;;;;;-143.48;100.00;118439.88;5073620;28;20116;-69
2023/03/24 00:27:47;;;;;;;11.32;3.45;;;;;;;-143.48;100.00;118439.88;5072394;28;20107;-68
2023/03/24 00:30:14;;;;;;;12.07;3.90;;;;;;;-143.48;100.00;118439.88;5072032;28;20024;-68
2023/03/24 00:32:39;;;;;;;8.77;3.40;;;;;;;-143.48;100.00;118439.88;5073526;28;20032;-67
2023/03/24 00:35:07;;;;;;;5.35;3.33;;;;;;;-143.48;100.00;118439.88;5072358;28;20044;-67
2023/03/24 00:37:36;;;;;;;10.98;4.18;;;;;;;-143.48;100.00;118439.88;5073294;28;20031;-68
2023/03/24 00:40:05;;;;;;;11.15;3.70;;;;;;;-143.48;100.00;118439.88;5073440;28;20013;-68
2023/03/24 00:42:32;;;;;;;8.57;3.65;;;;;;;-143.48;100.00;118439.88;5073472;28;20025;-69
2023/03/24 00:44:57;;;;;;;11.27;3.45;;;;;;;-143.48;100.00;118439.88;5072146;28;20382;-68
2023/03/24 00:47:24;;;;;;;7.47;3.25;;;;;;;-143.48;100.00;118439.88;5073135;28;20151;-69
2023/03/24 00:49:52;;;;;;;7.95;3.47;;;;;;;-143.48;100.00;118439.88;5075097;28;20028;-67
2023/03/24 00:52:21;;;;;;;10.15;3.40;;;;;;;-143.48;100.00;118439.88;5075882;28;20020;-68
2023/03/24 00:54:57;;;;;;;9.43;3.70;;;;;;;-143.48;100.00;118439.88;5077247;28;20035;-68
2023/03/24 00:57:24;;;;;;;9.35;3.75;;;;;;;-143.48;100.00;118439.88;5075919;28;20024;-68
2023/03/24 00:59:53;;;;;;;8.13;3.58;;;;;;;-143.48;100.00;118439.88;5075612;28;20032;-68
2023/03/24 01:02:21;;;;;;;11.10;3.25;;;;;;;-143.48;100.00;118439.88;5077203;28;20020;-69
2023/03/24 01:04:52;;;;;;;5.63;3.08;;;;;;;-143.48;100.00;118439.88;5077067;28;20029;-68
2023/03/24 01:07:19;;;;;;;8.55;3.40;;;;;;;-143.48;100.00;118439.88;5076899;28;20349;-68
2023/03/24 01:09:50;;;;;;;9.27;3.33;;;;;;;-143.48;100.00;118439.88;5075516;28;20025;-69
2023/03/24 01:12:18;;;;;;;7.22;3.55;;;;;;;-143.48;100.00;118439.88;5076860;28;20101;-68
2023/03/24 01:14:45;;;;;;;8.00;3.33;;;;;;;-143.48;100.00;118439.88;5076833;28;20024;-68
2023/03/24 01:17:11;;;;;;;10.93;3.45;;;;;;;-143.48;100.00;118439.88;5075571;28;20106;-69
2023/03/24 01:19:36;;;;;;;7.60;3.47;;;;;;;-143.48;100.00;118439.88;5076789;28;20452;-68
2023/03/24 01:22:02;;;;;;;7.40;3.45;;;;;;;-143.48;100.00;118439.88;5075140;28;20040;-68
2023/03/24 01:24:27;;;;;;;4.82;3.38;;;;;;;-143.48;100.00;118439.88;5076658;28;20479;-68
2023/03/24 01:26:52;;;;;;;7.30;3.60;;;;;;;-143.48;100.00;118439.88;5076736;28;20024;-68
2023/03/24 01:29:18;;;;;;;5.82;3.30;;;;;;;-143.48;100.00;118439.88;5074970;28;20056;-68
2023/03/24 01:31:43;;;;;;;8.65;3.35;;;;;;;-143.48;100.00;118439.88;5076445;28;20111;-68
2023/03/24 01:34:08;;;;;;;9.10;3.92;;;;;;;-143.48;100.00;118439.88;5076451;28;20530;-68
2023/03/24 01:36:34;;;;;;;8.32;3.60;;;;;;;-143.48;100.00;118439.88;5076600;28;20111;-68
2023/03/24 01:39:00;;;;;;;7.28;3.45;;;;;;;-143.48;100.00;118439.88;5076604;28;20048;-68
2023/03/24 01:41:35;;;;;;;7.57;3.28;;;;;;;-143.48;100.00;118439.88;5076540;28;20502;-68
2023/03/24 01:44:34;;;;;;;10.07;3.30;;;;;;;-143.48;100.00;118439.88;5076318;28;20032;-69
2023/03/24 01:47:01;;;;;;;8.40;3.35;;;;;;;-143.48;100.00;118439.88;5076481;28;20103;-69
2023/03/24 01:49:47;;;;;;;7.18;3.45;;;;;;;-143.48;100.00;118439.88;5076448;28;20419;-69
2023/03/24 01:52:17;;;;;;;6.78;3.30;;;;;;;-143.48;100.00;118439.88;5075983;28;20024;-69
2023/03/24 01:54:47;;;;;;;5.97;3.28;;;;;;;-143.48;100.00;118439.88;5076030;28;20078;-68
2023/03/24 01:57:27;;;;;;;6.78;3.70;;;;;;;-143.48;100.00;118439.88;5076169;28;20028;-69
2023/03/24 01:59:56;;;;;;;8.75;3.47;;;;;;;-143.48;100.00;118439.88;5075917;28;20017;-70
2023/03/24 02:02:22;;;;;;;8.10;3.67;;;;;;;-143.48;100.00;118439.88;5073543;28;20025;-70
2023/03/24 02:04:52;;;;;;;8.15;3.40;;;;;;;-143.48;100.00;118439.88;5076054;28;20024;-68
2023/03/24 02:07:35;;;;;;;4.95;3.42;;;;;;;-143.48;100.00;118439.88;5074634;28;20372;-68
2023/03/24 02:10:04;;;;;;;6.50;3.50;;;;;;;-143.48;100.00;118439.88;5075894;28;20047;-68
2023/03/24 02:12:31;;;;;;;7.63;3.47;;;;;;;-143.48;100.00;118439.88;5075813;28;20078;-68
2023/03/24 02:14:56;;;;;;;7.25;3.95;;;;;;;-143.48;100.00;118439.88;5075804;28;20027;-68
2023/03/24 02:17:32;;;;;;;7.10;3.67;;;;;;;-143.48;100.00;118439.88;5074575;28;20040;-69
2023/03/24 02:20:22;;;;;;;7.13;3.83;;;;;;;-143.48;100.00;118439.88;5075822;28;20514;-68
2023/03/24 02:23:16;;;;;;;6.53;3.65;;;;;;;-143.48;100.00;118439.88;5075532;28;20361;-67
2023/03/24 02:26:18;;;;;;;8.65;3.50;;;;;;;-143.48;100.00;118439.88;5074399;28;20021;-68
2023/03/24 02:29:21;;;;;;;9.35;3.33;;;;;;;-143.48;100.00;118439.88;5075367;28;20439;-68
2023/03/24 02:32:08;;;;;;;5.63;2.83;;;;;;;-143.48;100.00;118439.88;5075473;28;20022;-68
2023/03/24 02:34:55;;;;;;;4.82;2.30;;;;;;;-143.48;100.00;118439.88;5074010;28;20501;-68
2023/03/24 02:37:38;;;;;;;4.40;1.95;;;;;;;-143.48;100.00;118439.88;5075415;28;20103;-69
2023/03/24 02:40:17;;;;;;;4.10;1.92;;;;;;;-143.48;100.00;118439.88;5075220;28;20029;-68
2023/03/24 02:42:51;;;;;;;3.90;1.70;;;;;;;-143.48;100.00;118439.88;5073849;28;20020;-68
2023/03/24 02:45:35;;;;;;;6.15;1.50;;;;;;;-143.48;98.28;118439.88;5075155;28;20033;-68
2023/03/24 02:48:33;;;;;;;3.72;1.40;;;;;;;-143.48;97.24;118439.88;5075100;28;20024;-68
2023/03/24 02:51:12;;;;;;;6.80;1.50;;;;;;;-143.48;98.29;118439.88;5075011;28;20025;-67
2023/03/24 02:53:46;;;;;;;5.22;1.42;;;;;;;-143.48;96.68;118439.88;5074724;28;20115;-68
2023/03/24 02:56:20;;;;;;;5.57;1.38;;;;;;;-143.48;95.67;118439.88;5075135;28;20032;-69
2023/03/24 02:59:03;;;;;;;4.53;1.25;;;;;;;-143.48;95.31;118439.88;5074953;28;20361;-68
2023/03/24 03:01:40;;;;;;;5.20;1.27;;;;;;;-143.48;95.13;118439.88;5074887;28;20036;-69
2023/03/24 03:04:18;;;;;;;4.10;1.20;;;;;;;-143.48;95.93;118439.88;5074739;28;20108;-68
2023/03/24 03:06:50;;;;;;;7.53;1.40;;;;;;;-143.48;95.19;118439.88;5073424;28;20025;-68
2023/03/24 03:09:18;;;;;;;5.97;1.10;;;;;;;-143.48;95.45;118439.88;5074626;28;20074;-69
2023/03/24 03:11:47;;;;;;;8.13;1.60;;;;;;;-143.48;96.69;118439.88;5074116;28;20032;-67
2023/03/24 03:14:27;;;;;;;5.15;1.30;;;;;;;-143.48;96.63;118439.88;5073424;28;20017;-68
2023/03/24 03:17:05;;;;;;;6.25;1.20;;;;;;;-143.48;95.62;118439.88;5074630;28;20024;-68
2023/03/24 03:19:39;;;;;;;8.05;1.58;;;;;;;-143.48;96.37;118439.88;5073534;28;20086;-68
2023/03/24 03:22:12;;;;;;;6.95;1.55;;;;;;;-143.48;95.91;118439.88;5074396;28;20111;-69
2023/03/24 03:24:41;;;;;;;9.67;1.30;;;;;;;-143.48;94.92;118439.88;5073209;28;20016;-69
2023/03/24 03:27:17;;;;;;;8.05;1.33;;;;;;;-143.48;93.49;118439.88;5074241;28;20024;-68
2023/03/24 03:29:49;;;;;;;6.72;1.40;;;;;;;-143.48;92.84;118439.88;5073103;28;20364;-68
2023/03/24 03:32:26;;;;;;;6.35;1.60;;;;;;;-143.48;94.09;118439.88;5074262;28;20025;-68
2023/03/24 03:35:06;;;;;;;8.55;1.60;;;;;;;-143.48;95.04;118439.88;5074196;28;20035;-68
2023/03/24 03:38:05;;;;;;;8.77;1.95;;;;;;;-143.48;94.10;118439.88;5074150;28;20024;-68
2023/03/24 03:40:48;;;;;;;8.55;1.85;;;;;;;-143.48;94.82;118439.88;5072559;28;20036;-69
2023/03/24 03:43:14;;;;;;;11.27;2.10;;;;;;;-143.48;93.94;118439.88;5074171;28;20475;-69
2023/03/24 03:45:39;;;;;;;10.60;1.70;;;;;;;-143.48;94.97;118439.88;5073916;28;20081;-69
2023/03/24 03:48:05;;;;;;;9.73;1.65;;;;;;;-143.48;93.67;118439.88;5073968;28;20035;-69
2023/03/24 03:50:32;;;;;;;9.27;2.20;;;;;;;-143.48;93.91;118439.88;5073694;28;20040;-70
2023/03/24 03:52:57;;;;;;;8.38;2.05;;;;;;;-143.48;95.36;118439.88;5073939;28;20047;-70
2023/03/24 03:55:23;;;;;;;9.10;1.95;;;;;;;-143.48;94.91;118439.88;5073680;28;20479;-69
2023/03/24 03:57:49;;;;;;;13.73;2.20;;;;;;;-143.48;95.06;118439.88;5073847;28;20020;-68
2023/03/24 04:00:19;;;;;;;10.27;1.80;;;;;;;-143.48;94.82;118439.88;5073756;28;20460;-68
2023/03/24 04:03:23;;;;;;;9.63;1.80;;;;;;;-143.48;95.21;118439.88;5073704;28;20032;-69
2023/03/24 04:06:09;;;;;;;12.90;2.15;;;;;;;-143.48;94.91;118439.88;5073775;28;20127;-69
2023/03/24 04:08:48;;;;;;;13.35;2.38;;;;;;;-143.48;95.86;118439.88;5073657;28;20487;-68
2023/03/24 04:11:37;;;;;;;13.25;2.42;;;;;;;-143.48;96.78;118439.88;5073588;28;20024;-69
2023/03/24 04:14:28;;;;;;;15.02;2.42;;;;;;;-143.48;97.24;118439.88;5073867;28;20024;-68
2023/03/24 04:17:11;;;;;;;14.43;2.30;;;;;;;-143.48;97.36;118439.88;5073771;28;20028;-68
2023/03/24 04:20:11;;;;;;;10.13;2.20;;;;;;;-143.48;97.68;118439.88;5073668;28;20368;-69
2023/03/24 04:22:59;;;;;;;10.13;1.98;;;;;;;-143.48;97.91;118439.88;5073794;28;20028;-68
2023/03/24 04:25:34;;;;;;;11.70;2.05;;;;;;;-143.48;97.77;118439.88;5072872;28;20060;-69
2023/03/24 04:28:13;;;;;;;9.90;1.90;;;;;;;-143.48;97.47;118439.88;5073490;28;20111;-71
2023/03/24 04:30:43;;;;;;;15.30;2.50;;;;;;;-143.48;96.85;118439.88;5072311;28;20460;-68
2023/03/24 04:33:27;;;;;;;15.90;2.45;;;;;;;-143.48;97.38;118439.88;5073402;28;20029;-68
2023/03/24 04:36:17;;;;;;;15.52;2.40;;;;;;;-143.48;97.08;118439.88;5073460;28;20020;-68
2023/03/24 04:38:47;;;;;;;10.15;2.38;;;;;;;-143.48;96.12;118439.88;5073600;28;20025;-68
2023/03/24 04:41:16;;;;;;;15.52;2.60;;;;;;;-143.48;96.01;118439.88;5072085;28;20027;-68
2023/03/24 04:43:44;;;;;;;15.90;2.83;;;;;;;-143.48;96.39;118439.88;5071994;28;20025;-68
2023/03/24 04:46:10;;;;;;;14.90;2.35;;;;;;;-143.48;96.01;118439.88;5073446;28;20028;-68
2023/03/24 04:48:35;;;;;;;17.25;3.20;;;;;;;-143.48;95.57;118439.88;5073467;28;20452;-68
2023/03/24 04:51:02;;;;;;;12.40;2.05;;;;;;;-143.48;95.69;118439.88;5073190;28;20025;-69
2023/03/24 04:53:28;;;;;;;19.38;2.30;;;;;;;-143.48;96.24;118439.88;5073057;28;20081;-69
2023/03/24 04:56:17;;;;;;;14.77;2.45;;;;;;;-143.48;95.29;118439.88;5073467;28;20028;-70
2023/03/24 04:58:43;;;;;;;13.15;2.78;;;;;;;-143.48;94.93;118439.88;5071883;28;20036;-68
2023/03/24 05:01:08;;;;;;;19.40;3.60;;;;;;;-143.48;94.51;118439.88;5071877;28;20452;-68
2023/03/24 05:03:36;;;;;;;14.10;3.00;;;;;;;-143.48;94.56;118439.88;5073004;28;20075;-70
2023/03/24 05:06:04;;;;;;;17.75;2.40;;;;;;;-143.48;94.68;118439.88;5073269;28;20102;-68
2023/03/24 05:08:30;;;;;;;18.75;2.40;;;;;;;-143.48;94.65;118439.88;5071778;28;20460;-69
2023/03/24 05:10:55;;;;;;;19.15;3.00;;;;;;;-143.48;94.23;118439.88;5071839;28;20063;-68
2023/03/24 05:13:21;;;;;;;21.15;2.67;;;;;;;-143.48;94.59;118439.88;5071614;28;20016;-69
2023/03/24 05:15:46;;;;;;;20.65;2.72;;;;;;;-143.48;94.34;118439.88;5073395;28;20379;-69
2023/03/24 05:18:11;;;;;;;19.30;3.10;;;;;;;-143.48;94.47;118439.88;5072937;28;20032;-68
2023/03/24 05:20:37;;;;;;;16.83;2.40;;;;;;;-143.48;93.82;118439.88;5073130;28;20020;-69
2023/03/24 05:23:02;;;;;;;22.90;3.42;;;;;;;-143.48;93.76;118439.88;5072889;28;20025;-69
2023/03/24 05:25:27;;;;;;;21.45;2.65;;;;;;;-143.48;93.64;118439.88;5071606;28;20376;-68
2023/03/24 05:27:53;;;;;;;22.60;3.35;;;;;;;-143.48;94.12;118439.88;5072887;28;20472;-68
2023/03/24 05:30:21;;;;;;;23.13;3.15;;;;;;;-143.48;94.64;118439.88;5072672;28;20024;-68
2023/03/24 05:32:46;;;;;;;28.83;3.95;;;;;;;-143.48;93.94;118439.88;5072854;28;20025;-68
2023/03/24 05:35:12;;;;;;;22.80;2.85;;;;;;;-143.48;94.02;118439.88;5073490;28;20493;-68
2023/03/24 05:37:37;;;;;;;25.02;3.20;;;;;;;-143.48;94.46;118439.88;5076695;28;20371;-68
2023/03/24 05:40:02;;;;;;;16.70;3.13;;;;;;;-143.48;95.01;118439.88;5076433;28;20017;-69
2023/03/24 05:42:28;;;;;;;20.05;3.15;;;;;;;-143.48;94.53;118439.88;5075055;28;20032;-69
2023/03/24 05:44:53;;;;;;;24.88;3.58;;;;;;;-143.48;94.24;118439.88;5076126;28;20032;-68
2023/03/24 05:47:19;;;;;;;26.77;3.17;;;;;;;-143.48;95.00;118439.88;5076367;28;20027;-69
2023/03/24 05:49:47;;;;;;;25.42;3.65;;;;;;;-143.48;94.72;118439.88;5074946;28;20102;-69
2023/03/24 05:52:19;;;;;;;26.25;3.60;;;;;;;-143.48;94.50;118439.88;5076246;28;20028;-68
2023/03/24 05:54:44;;;;;;;25.00;3.88;;;;;;;-143.48;94.18;118439.88;5075121;28;20021;-69
2023/03/24 05:57:13;;;;;;;27.70;5.05;;;;;;;-143.48;93.88;118439.88;5074836;28;20040;-69
2023/03/24 05:59:38;;;;;;;17.98;3.58;;;;;;;-143.48;94.01;118439.88;5076173;28;20017;-70
2023/03/24 06:02:04;;;;;;;23.45;3.45;;;;;;;-143.48;93.63;118439.88;5075906;28;20027;-70
2023/03/24 06:04:30;;;;;;;23.23;3.08;;;;;;;-143.48;93.57;118439.88;5074587;28;20112;-70
2023/03/24 06:06:57;;;;;;;23.73;3.42;;;;;;;-143.48;93.76;118439.88;5074653;28;20020;-67
2023/03/24 06:09:31;;;;;;;24.85;3.50;;;;;;;-143.48;92.99;118439.88;5076196;28;20027;-69
2023/03/24 06:11:58;;;;;;;22.20;3.70;;;;;;;-143.48;92.67;118439.88;5074980;28;20098;-68
2023/03/24 06:14:24;;;;;;;27.08;3.55;;;;;;;-143.48;92.45;118439.88;5076094;28;20029;-68
2023/03/24 06:16:50;;;;;;;21.92;3.75;;;;;;;-143.48;92.29;118439.88;5075686;28;20093;-68
2023/03/24 06:19:16;;;;;;;22.90;3.47;;;;;;;-143.48;92.00;118439.88;5074298;28;20020;-68
2023/03/24 06:21:43;;;;;;;28.50;3.40;;;;;;;-143.48;92.27;118439.88;5075679;28;20028;-68
2023/03/24 06:24:13;;;;;;;21.67;3.53;;;;;;;-143.48;92.52;118439.88;5075529;28;20052;-69
2023/03/24 06:26:40;;;;;;;21.05;2.63;;;;;;;-143.48;91.40;118439.88;5075651;28;20036;-69
2023/03/24 06:29:07;;;;;;;21.88;3.20;;;;;;;-143.48;90.91;118439.88;5075501;28;20109;-69
2023/03/24 06:31:34;;;;;;;21.85;3.92;;;;;;;-143.48;90.78;118439.88;5074031;28;20074;-69
2023/03/24 06:34:00;;;;;;;26.05;3.40;;;;;;;-143.48;91.31;118439.88;5075743;28;20032;-70
2023/03/24 06:36:25;;;;;;;15.48;3.05;;;;;;;-143.48;91.25;118439.88;5074012;28;20032;-69
2023/03/24 06:38:51;;;;;;;22.02;3.28;;;;;;;-143.48;90.42;118439.88;5074168;28;20024;-69
2023/03/24 06:41:16;;;;;;;24.63;3.63;;;;;;;-143.48;90.65;118439.88;5075322;28;20024;-69
2023/03/24 06:43:41;;;;;;;21.80;2.95;;;;;;;-143.48;90.48;118439.88;5075091;28;20113;-69
2023/03/24 06:46:08;;;;;;;15.18;2.63;;;;;;;-143.48;90.14;118439.88;5075028;28;20024;-70
2023/03/24 06:48:34;;;;;;;20.00;2.83;;;;;;;-143.48;88.98;118439.88;5074503;28;20028;-69
2023/03/24 06:51:00;;;;;;;25.27;3.38;;;;;;;-143.48;88.92;118439.88;5073704;28;20111;-68
2023/03/24 06:53:25;;;;;;;19.92;2.97;;;;;;;-143.48;88.74;118439.88;5074349;28;20049;-68
2023/03/24 06:55:51;;;;;;;20.70;3.08;;;;;;;-143.48;88.31;118439.88;5073528;28;20028;-68
2023/03/24 06:58:16;;;;;;;19.65;3.13;;;;;;;-143.48;88.83;118439.88;5074937;28;20021;-68
2023/03/24 07:00:42;;;;;;;19.65;3.53;;;;;;;-143.48;87.80;118439.88;5074860;28;20375;-68
2023/03/24 07:03:08;;;;;;;21.95;3.38;;;;;;;-143.48;88.46;118439.88;5075363;28;20052;-69
2023/03/24 07:05:42;;;;;;;29.08;3.25;;;;;;;-143.48;87.78;118439.88;5074706;28;20028;-68
2023/03/24 07:08:08;;;;;;;23.70;3.53;;;;;;;-143.48;87.30;118439.88;5074636;28;20024;-68
2023/03/24 07:10:35;;;;;;;27.15;3.38;;;;;;;-143.48;86.39;118439.88;5076572;28;20346;-69
2023/03/24 07:13:02;;;;;;;25.77;3.60;;;;;;;-143.48;86.63;118439.88;5074864;28;20020;-68
2023/03/24 07:15:27;;;;;;;32.28;4.30;;;;;;;-143.48;84.89;118439.88;5072266;28;20146;-70
2023/03/24 07:17:53;;;;;;;24.13;3.25;;;;;;;-143.48;85.21;118439.88;5073156;28;20124;-70
2023/03/24 07:20:19;;;;;;;17.77;3.47;;;;;;;-143.48;83.73;118439.88;5071648;28;20052;-69
2023/03/24 07:22:44;;;;;;;23.42;3.78;;;;;;;-143.48;83.93;118439.88;5071697;28;20028;-69
2023/03/24 07:25:13;;;;;;;19.13;3.33;;;;;;;-143.48;84.47;118439.88;5072967;28;20071;-69
2023/03/24 07:27:38;;;;;;;22.90;4.10;;;;;;;-143.48;84.08;118439.88;5071593;28;20024;-69
2023/03/24 07:30:04;;;;;;;23.20;3.17;;;;;;;-143.48;83.73;118439.88;5072055;28;20085;-69
2023/03/24 07:32:33;;;;;;;19.50;3.63;;;;;;;-143.48;83.74;118439.88;5074296;28;20082;-69
2023/03/24 07:35:00;;;;;;;18.15;3.13;;;;;;;-143.48;83.60;118439.88;5074089;28;20024;-69
2023/03/24 07:37:25;;;;;;;22.52;3.15;;;;;;;-143.48;81.44;118439.88;5074159;28;20456;-69
2023/03/24 07:39:50;;;;;;;17.23;3.72;;;;;;;-143.48;77.27;118439.88;5072579;28;20031;-70
2023/03/24 07:42:16;;;;;;;21.83;3.53;;;;;;;-143.48;76.03;118439.88;5074184;28;20021;-70
2023/03/24 07:44:41;;;;;;;20.48;3.38;;;;;;;-143.48;77.58;118439.88;5072430;28;20545;-69
2023/03/24 07:47:06;;;;;;;22.98;3.20;;;;;;;-143.48;76.84;118439.88;5073868;28;20021;-69
2023/03/24 07:49:32;;;;;;;24.67;3.30;;;;;;;-143.48;79.64;118439.88;5072537;28;20025;-70
2023/03/24 07:51:58;;;;;;;24.23;4.00;;;;;;;-143.48;69.43;118439.88;5072823;28;20024;-68
2023/03/24 07:54:23;;;;;;;20.73;3.90;;;;;;;-143.48;75.14;118439.88;5072732;28;20558;-73
2023/03/24 07:56:49;;;;;;;25.38;4.03;;;;;;;-143.48;77.79;118439.88;5072921;28;20348;-69
2023/03/24 07:59:16;;;;;;;22.55;3.33;;;;;;;-143.48;77.15;118439.88;5073526;28;20024;-69
2023/03/24 08:01:41;;;;;;;17.98;3.55;;;;;;;-143.48;77.41;118439.88;5071909;28;20035;-69
2023/03/24 08:04:10;;;;;;;17.27;3.13;;;;;;;-143.48;75.22;118439.88;5073537;28;20028;-69
2023/03/24 08:06:36;;;;;;;23.48;3.80;;;;;;;-143.48;74.14;118439.88;5072579;28;20028;-69
2023/03/24 08:09:01;;;;;;;22.55;3.58;;;;;;;-143.48;76.04;118439.88;5073413;28;20020;-69
2023/03/24 08:11:26;;;;;;;24.48;3.90;;;;;;;-143.48;73.06;118439.88;5073735;28;20081;-69
2023/03/24 08:13:52;;;;;;;17.17;3.00;;;;;;;-143.48;68.64;118439.88;5072119;28;20065;-69
2023/03/24 08:16:17;;;;;;;22.73;3.63;;;;;;;-143.48;64.61;118439.88;5073409;28;20021;-70
2023/03/24 08:18:42;;;;;;;16.20;2.97;;;;;;;-143.48;65.15;118439.88;5073431;28;20028;-69
2023/03/24 08:21:08;;;;;;;16.70;3.10;;;;;;;-143.48;69.73;118439.88;5072190;28;20178;-68
2023/03/24 08:23:35;;;;;;;18.60;3.30;;;;;;;-143.48;71.67;118439.88;5072105;28;20455;-71
2023/03/24 08:26:01;;;;;;;17.33;3.30;;;;;;;-143.48;67.89;118439.88;5073394;28;20103;-70
2023/03/24 08:28:26;;;;;;;18.10;2.97;;;;;;;-143.48;68.75;118439.88;5073314;28;20024;-70
2023/03/24 08:30:52;;;;;;;22.90;3.58;;;;;;;-143.48;64.54;118439.88;5072177;28;20071;-69
2023/03/24 08:33:17;;;;;;;16.38;3.10;;;;;;;-143.48;67.90;118439.88;5073347;28;20353;-70
2023/03/24 08:35:45;;;;;;;14.10;2.83;;;;;;;-143.48;69.32;118439.88;5073336;28;20600;-70
2023/03/24 08:38:11;;;;;;;17.55;3.33;;;;;;;-143.48;61.21;118439.88;5073281;28;20044;-70
2023/03/24 08:40:38;;;;;;;19.95;3.58;;;;;;;-143.48;61.53;118439.88;5073161;28;20021;-70
2023/03/24 08:43:09;;;;;;;16.80;3.15;;;;;;;-143.48;60.09;118439.88;5073223;28;20397;-69
2023/03/24 08:45:35;;;;;;;21.67;3.55;;;;;;;-143.48;55.44;118439.88;5073176;28;20028;-69
2023/03/24 08:48:02;;;;;;;21.38;3.65;;;;;;;-143.48;56.39;118439.88;5073389;28;20111;-70
2023/03/24 08:50:33;;;;;;;16.08;3.40;;;;;;;-143.48;51.28;118439.88;5073127;28;20464;-70
2023/03/24 08:52:59;;;;;;;16.88;3.40;;;;;;;-143.48;48.76;118439.88;5071679;28;20052;-70
2023/03/24 08:55:25;;;;;;;17.60;3.50;;;;;;;-143.48;55.90;118439.88;5073107;28;20031;-70
2023/03/24 08:57:51;;;;;;;15.40;3.30;;;;;;;-143.48;54.89;118439.88;5071913;28;20024;-70
2023/03/24 09:00:19;;;;;;;14.07;3.25;;;;;;;-143.48;62.10;118439.88;5073108;28;20027;-68
2023/03/24 09:02:46;;;;;;;15.98;3.08;;;;;;;-143.48;57.13;118439.88;5071889;28;20028;-69
2023/03/24 09:05:14;;;;;;;14.45;2.90;;;;;;;-143.48;58.13;118439.88;5072907;28;20055;-68
2023/03/24 09:07:40;;;;;;;15.40;3.20;;;;;;;-143.48;61.01;118439.88;5073056;28;20052;-68
2023/03/24 09:10:08;;;;;;;14.80;2.97;;;;;;;-143.48;57.50;118439.88;5072607;28;20047;-69
2023/03/24 09:12:34;;;;;;;18.73;3.33;;;;;;;-143.48;62.09;118439.88;5075578;28;20440;-69
2023/03/24 09:14:59;;;;;;;17.13;3.22;;;;;;;-143.48;49.82;118439.88;5076806;28;20044;-68
2023/03/24 09:17:25;;;;;;;17.52;3.13;;;;;;;-143.48;51.58;118439.88;5076450;28;20025;-70
2023/03/24 09:19:50;;;;;;;11.90;2.67;;;;;;;-143.48;46.51;118439.88;5075402;28;20510;-69
2023/03/24 09:22:16;;;;;;;15.40;3.05;;;;;;;-143.48;51.27;118439.88;5076808;28;20108;-69
2023/03/24 09:24:43;;;;;;;14.73;2.90;;;;;;;-143.48;48.86;118439.88;5077159;28;20032;-69
2023/03/24 09:27:08;;;;;;;14.77;3.13;;;;;;;-143.48;46.19;118439.88;5075221;28;20055;-68
2023/03/24 09:29:34;;;;;;;13.27;2.95;;;;;;;-143.48;44.88;118439.88;5076588;28;20084;-69
2023/03/24 09:31:59;;;;;;;12.35;2.38;;;;;;;-143.48;46.62;118439.88;5076449;28;20107;-70
2023/03/24 09:34:24;;;;;;;17.75;2.83;;;;;;;-143.48;44.95;118439.88;5076515;28;20030;-70
2023/03/24 09:36:50;;;;;;;10.43;2.42;;;;;;;-143.48;45.13;118439.88;5076547;28;20528;-69
2023/03/24 09:39:16;;;;;;;13.18;2.83;;;;;;;-143.48;48.38;118439.88;5075137;28;20017;-68
2023/03/24 09:41:44;;;;;;;13.65;2.40;;;;;;;-143.48;51.45;118439.88;5076334;28;20025;-70
2023/03/24 09:44:28;;;;;;;13.90;2.88;;;;;;;-143.48;52.85;118439.88;5076676;28;20024;-70
2023/03/24 09:47:00;;;;;;;13.27;2.83;;;;;;;-143.48;54.12;118439.88;5076319;28;20039;-70
2023/03/24 09:49:29;;;;;;;12.95;2.67;;;;;;;-143.48;51.77;118439.88;5074364;28;20563;-71
2023/03/24 09:52:04;;;;;;;13.48;2.97;;;;;;;-143.48;54.20;118439.88;5073332;28;20020;-70
2023/03/24 09:55:02;;;;;;;14.40;3.00;;;;;;;-143.48;53.66;118439.88;5074127;28;20052;-71
2023/03/24 09:57:43;;;;;;;17.08;2.67;;;;;;;-143.48;53.98;118439.88;5074511;28;20027;-71
2023/03/24 10:00:25;;;;;;;13.73;2.80;;;;;;;-143.48;54.00;118439.88;5074525;28;20028;-71
2023/03/24 10:02:51;;;;;;;11.70;2.72;;;;;;;-143.48;52.57;118439.88;5074433;28;20059;-69
2023/03/24 10:05:23;;;;;;;15.90;2.78;;;;;;;-143.48;58.64;118439.88;5075281;28;20131;-76
2023/03/24 10:07:56;;;;;;;13.23;2.58;;;;;;;-143.48;53.52;118439.88;5075267;28;20452;-71
2023/03/24 10:10:42;;;;;;;;;;;;;;;-143.48;52.50;118439.88;5074904;28;20062;-70
2023/03/24 10:13:21;;;;;;;14.88;2.42;;;;;;;-143.48;54.36;118439.88;5065086;28;20462;-70
2023/03/24 10:15:54;;;;;;;12.77;2.60;;;;;;;-143.48;54.68;118439.88;5075964;28;20024;-71
2023/03/24 10:18:25;;;;;;;10.20;2.75;;;;;;;-143.48;55.52;118439.88;5074914;28;20378;-71
2023/03/24 10:20:58;;;;;;;12.15;2.42;;;;;;;-143.48;53.71;118439.88;5075303;28;20042;-71
2023/03/24 10:23:36;;;;;;;17.35;2.67;;;;;;;-143.48;52.39;118439.88;5073661;28;20031;-71
2023/03/24 10:26:01;;;;;;;14.77;2.83;;;;;;;-143.48;52.30;118439.88;5075520;28;20046;-72
2023/03/24 10:28:49;;;;;;;19.52;2.67;;;;;;;-143.48;53.01;118439.88;5075750;28;20033;-72
2023/03/24 10:31:16;;;;;;;15.05;2.75;;;;;;;-143.48;54.78;118439.88;5074833;28;20036;-72
2023/03/24 10:33:43;;;;;;;13.48;2.65;;;;;;;-143.48;55.81;118439.88;5075246;28;20029;-72
2023/03/24 10:36:16;;;;;;;15.20;2.83;;;;;;;-143.48;54.76;118439.88;5074087;28;20031;-72
2023/03/24 10:38:42;;;;;;;;;;;;;;;-143.48;55.17;118439.88;5075835;28;20031;-72
2023/03/24 10:41:15;;;;;;;16.23;2.38;;;;;;;-143.48;55.41;118439.88;5074129;28;19908;-72
2023/03/24 10:43:41;;;;;;;;;;;;;;;-143.48;55.23;118439.88;5074313;28;20051;-72
2023/03/24 10:46:08;;;;;;;13.63;2.58;;;;;;;-143.48;58.90;118439.88;5073832;28;19908;-69
2023/03/24 10:48:40;;;;;;;17.02;2.80;;;;;;;-143.48;55.82;118439.88;5073896;28;20028;-71
2023/03/24 10:51:12;;;;;;;19.02;2.75;;;;;;;-143.48;53.79;118439.88;5073503;28;20383;-72
2023/03/24 10:53:38;;;;;;;17.83;2.85;;;;;;;-143.48;55.70;118439.88;5074874;28;20057;-71
2023/03/24 10:56:04;;;;;;;19.83;2.80;;;;;;;-143.48;53.31;118439.88;5074669;28;20028;-70
2023/03/24 10:58:37;;;;;;;17.40;2.88;;;;;;;-143.48;53.72;118439.88;5073337;28;20028;-70
2023/03/24 11:01:19;;;;;;;14.98;2.45;;;;;;;-143.48;53.93;118439.88;5072071;28;20027;-72
2023/03/24 11:03:46;;;;;;;15.40;2.63;;;;;;;-143.48;54.94;118439.88;5073435;28;20024;-70
2023/03/24 11:06:17;;;;;;;15.20;2.50;;;;;;;-143.48;55.01;118439.88;5072165;28;20430;-70
2023/03/24 11:08:42;;;;;;;16.17;2.67;;;;;;;-143.48;54.23;118439.88;5073565;28;20078;-71
2023/03/24 11:11:28;;;;;;;15.15;2.70;;;;;;;-143.48;57.92;118439.88;5073260;28;20020;-71
2023/03/24 11:13:57;;;;;;;10.50;2.20;;;;;;;-143.48;54.55;118439.88;5073196;28;20024;-72
2023/03/24 11:16:34;;;;;;;17.85;2.65;;;;;;;-143.48;51.47;118439.88;5074678;28;20032;-71